Latest Coastal Weather Observations for Albany Airport

IDW60701

Issued at 5:43 am WST Sunday 4 December 2016 (issued every 10 minutes, with the page automatically refreshed every 10 minutes)

About coastal observations | Map of coastal stations | Coastal observations for WA | Marine services | Other Formats
Station Details ID: 009999 Name: ALBANY AIRPORT Lat: -34.94 Lon: 117.82 Height: 68.4 m
Data from the previous 72 hours. | See also: Recent months at Albany Airport
Date/Time
WST
Temp
°C
Wind Pressure Rain since
9am
mm
Weather Cloud Vis
km
Sea
Height
m
Swell
Dir  Spd
kts
Gust
kts
hPa Trend Height
m
Period
s
Dir
04/05:30am 14.3 WSW 6 9 1012.0 - 0.4 - Partly cloudy 10 - - - -
04/05:00am 13.7 WSW 7 11 1011.7 - 0.4 - Partly cloudy 10 - - - -
04/04:30am 13.6 SW 9 15 1011.1 - 0.4 - Partly cloudy 10 - - - -
04/04:00am 13.4 WSW 8 11 1010.6 - 0.4 - Partly cloudy 10 - - - -
04/03:30am 13.5 WSW 8 10 1010.4 - 0.4 - Partly cloudy 10 - - - -
04/03:00am 13.7 WSW 10 13 1010.1 - 0.4 - Cloudy 10 - - - -
04/02:30am 13.2 WSW 8 11 1009.8 - 0.4 - Partly cloudy 10 - - - -
04/02:00am 13.4 WSW 9 13 1009.7 - 0.4 - Partly cloudy 10 - - - -
04/01:30am 13.8 WSW 8 11 1009.6 - 0.4 - Partly cloudy 10 - - - -
04/01:00am 13.4 WSW 9 12 1009.6 - 0.4 - Partly cloudy 10 - - - -
04/12:30am 14.2 W 10 13 1009.5 - 0.4 - Partly cloudy 10 - - - -
04/12:00am 14.1 WSW 11 14 1009.4 - 0.4 - Cloudy 10 - - - -
 
Date/Time
WST
Temp
°C
Wind Pressure Rain since
9am
mm
Weather Cloud Vis
km
Sea
Height
m
Swell
Dir  Spd
kts
Gust
kts
hPa Trend Height
m
Period
s
Dir
03/11:30pm 14.3 W 10 14 1009.3 - 0.4 - Partly cloudy 10 - - - -
03/11:00pm 14.4 WSW 11 16 1009.1 - 0.4 - Partly cloudy 10 - - - -
03/10:30pm 14.5 WSW 12 16 1009.0 - 0.4 - Cloudy 10 - - - -
03/10:00pm 14.6 WSW 12 17 1009.0 - 0.4 - Cloudy 10 - - - -
03/09:30pm 15.0 WSW 15 21 1008.8 - 0.4 - Partly cloudy 10 - - - -
03/09:00pm 15.4 WSW 14 20 1008.3 - 0.4 - Cloudy 10 - - - -
03/08:30pm 15.6 WSW 13 18 1008.0 - 0.4 - Partly cloudy 10 - - - -
03/08:00pm 15.6 WSW 13 19 1007.5 - 0.4 - Partly cloudy 10 - - - -
03/07:30pm 15.9 WSW 13 17 1007.0 - 0.4 - Partly cloudy 10 - - - -
03/07:00pm 16.1 WSW 15 20 1006.7 - 0.4 - Partly cloudy 10 - - - -
03/06:30pm 16.3 WSW 15 22 1006.3 - 0.4 - Partly cloudy 8 - - - -
03/06:00pm 17.8 WSW 17 23 1005.6 - 0.2 - Cloudy 10 - - - -
03/05:30pm 18.0 W 15 23 1005.1 - 0.2 - Partly cloudy 10 - - - -
03/05:00pm 17.5 W 16 22 1004.8 - 0.2 - Partly cloudy 10 - - - -
03/04:30pm 17.5 W 12 17 1004.4 - 0.2 - Partly cloudy 7 - - - -
03/04:17pm 17.3 W 13 19 1004.5 - 0.0 - Partly cloudy 10 - - - -
03/04:00pm 17.0 W 19 28 1004.4 - 0.0 - Partly cloudy 4 - - - -
03/03:55pm 17.1 WSW 21 30 1004.4 - 0.0 - Partly cloudy 6 - - - -
03/03:35pm 19.6 WSW 21 31 1003.8 - 0.0 - Partly cloudy 10 - - - -
03/03:30pm 20.1 WSW 21 27 1003.8 - 0.0 - Partly cloudy 10 - - - -
03/03:02pm 20.2 WSW 18 29 1003.3 - 0.0 - Partly cloudy 10 - - - -
03/03:00pm 20.8 WSW 16 22 1003.4 - 0.0 - Cloudy 10 - - - -
03/02:30pm 25.1 WNW 17 24 1002.8 - 0.0 - Partly cloudy 10 - - - -
03/02:00pm 24.3 W 17 24 1003.0 - 0.0 - Partly cloudy 10 - - - -
03/01:48pm 24.3 W 15 26 1002.8 - 0.0 - Partly cloudy 10 - - - -
03/01:30pm 24.8 WNW 15 20 1003.0 - 0.0 - Partly cloudy 10 - - - -
03/01:00pm 24.8 W 13 18 1003.3 - 0.0 - Partly cloudy 10 - - - -
03/12:30pm 24.1 WNW 12 21 1003.5 - 0.0 - Partly cloudy 10 - - - -
03/12:00pm 23.2 WNW 11 16 1004.0 - 0.0 - - 10 - - - -
03/11:30am 22.9 W 12 19 1004.3 - 0.0 - - 10 - - - -
03/11:00am 21.6 W 11 15 1004.7 - 0.0 - - 10 - - - -
03/10:30am 20.2 W 11 15 1004.9 - 0.0 - - 10 - - - -
03/10:00am 19.8 W 10 13 1005.2 - 0.0 - - 10 - - - -
03/09:30am 18.8 WSW 12 17 1005.3 - 0.0 - Partly cloudy 10 - - - -
03/09:00am 18.3 W 13 18 1005.6 - 0.0 - - 10 - - - -
03/08:30am 17.7 W 10 13 1005.7 - 0.0 - - 10 - - - -
03/08:00am 17.4 WNW 9 12 1005.8 - 0.0 - - 10 - - - -
03/07:30am 15.4 WNW 8 9 1005.8 - 0.0 - - 10 - - - -
03/07:00am 14.4 W 7 10 1006.2 - 0.0 - - 10 - - - -
03/06:30am 12.4 NW 5 7 1006.2 - 0.0 - - 10 - - - -
03/06:00am 11.9 W 4 6 1006.0 - 0.0 - - 10 - - - -
03/05:30am 11.1 W 5 6 1006.1 - 0.0 - - 10 - - - -
03/05:00am 10.5 W 6 7 1006.1 - 0.0 - - 10 - - - -
03/04:30am 11.3 CALM 0 0 1005.8 - 0.0 - - 10 - - - -
03/04:00am 12.3 ENE 6 7 1005.7 - 0.0 - - 10 - - - -
03/03:30am 11.7 E 3 4 1006.0 - 0.0 - - 10 - - - -
03/03:00am 11.1 ENE 3 5 1006.2 - 0.0 - - 10 - - - -
03/02:30am 10.6 ESE 1 4 1006.4 - 0.0 - - 10 - - - -
03/02:00am 10.7 CALM 0 0 1006.7 - 0.0 - - 10 - - - -
03/01:30am 10.8 NE 1 3 1007.1 - 0.0 - - 10 - - - -
03/01:00am 11.2 NE 3 4 1007.5 - 0.0 - - 10 - - - -
03/12:30am 12.3 ENE 4 5 1008.1 - 0.0 - - 10 - - - -
03/12:00am 12.9 ENE 5 6 1008.3 - 0.0 - Mostly clear 10 - - - -
 
Date/Time
WST
Temp
°C
Wind Pressure Rain since
9am
mm
Weather Cloud Vis
km
Sea
Height
m
Swell
Dir  Spd
kts
Gust
kts
hPa Trend Height
m
Period
s
Dir
02/11:30pm 14.2 E 6 8 1008.7 - 0.0 - Partly cloudy 10 - - - -
02/11:00pm 14.5 E 6 9 1009.4 - 0.0 - Cloudy 10 - - - -
02/10:30pm 14.3 E 6 9 1009.7 - 0.0 - Cloudy 10 - - - -
02/10:00pm 12.8 E 5 7 1010.0 - 0.0 - Partly cloudy 10 - - - -
02/09:30pm 13.3 E 5 6 1010.4 - 0.0 - - 10 - - - -
02/09:00pm 13.5 E 6 7 1010.5 - 0.0 - - 10 - - - -
02/08:30pm 13.5 E 7 9 1010.7 - 0.0 - - 10 - - - -
02/08:00pm 13.6 E 7 10 1010.7 - 0.0 - - 10 - - - -
02/07:30pm 14.2 ESE 7 9 1010.9 - 0.0 - - 10 - - - -
02/07:00pm 15.0 ESE 8 11 1010.8 - 0.0 - - 10 - - - -
02/06:30pm 15.7 ESE 11 15 1010.6 - 0.0 - - 10 - - - -
02/06:00pm 16.6 ESE 11 14 1010.5 - 0.0 - - 10 - - - -
02/05:30pm 16.7 SE 12 17 1010.4 - 0.0 - - 10 - - - -
02/05:00pm 17.4 SE 13 17 1010.4 - 0.0 - - 10 - - - -
02/04:30pm 18.4 ESE 13 18 1010.6 - 0.0 - - 10 - - - -
02/04:00pm 17.8 SE 13 18 1010.7 - 0.0 - - 10 - - - -
02/03:30pm 17.7 SE 14 18 1010.6 - 0.0 - - 10 - - - -
02/03:00pm 18.6 SE 14 19 1010.8 - 0.0 - - 10 - - - -
02/02:30pm 19.1 SE 13 18 1011.4 - 0.0 - - 10 - - - -
02/02:00pm 19.5 SE 13 18 1011.6 - 0.0 - - 10 - - - -
02/01:30pm 19.8 SE 13 17 1011.8 - 0.0 - Partly cloudy 10 - - - -
02/01:00pm 19.3 SE 12 17 1012.3 - 0.0 - Partly cloudy 10 - - - -
02/12:30pm 20.8 ENE 7 14 1012.6 - 0.0 - Mostly clear 10 - - - -
02/12:00pm 19.3 E 5 9 1013.2 - 0.0 - Mostly clear 10 - - - -
02/11:30am 19.5 N 5 9 1013.9 - 0.0 - Partly cloudy 10 - - - -
02/11:00am 18.1 ENE 4 7 1014.4 - 0.0 - Mostly cloudy 10 - - - -
02/10:30am 17.9 NE 6 11 1014.7 - 0.0 - Mostly cloudy 10 - - - -
02/10:00am 17.1 NE 7 11 1015.2 - 0.0 - Mostly cloudy 10 - - - -
02/09:30am 16.8 ENE 5 9 1015.5 - 0.0 - Mostly cloudy 10 - - - -
02/09:00am 16.8 E 5 8 1015.8 - 0.0 - Mostly cloudy 10 - - - -
02/08:30am 17.1 ENE 5 10 1016.1 - 0.0 - Mostly clear 10 - - - -
02/08:00am 15.7 E 5 7 1016.5 - 0.0 - Mostly clear 10 - - - -
02/07:30am 14.5 N 5 6 1016.6 - 0.0 - Mostly clear 10 - - - -
02/07:00am 13.7 N 3 4 1016.5 - 0.0 - Mostly cloudy 10 - - - -
02/06:30am 12.6 NNW 2 3 1016.6 - 0.0 - Partly cloudy 10 - - - -
02/06:00am 11.2 N 3 4 1016.4 - 0.0 - Partly cloudy 10 - - - -
02/05:30am 9.8 N 3 3 1016.2 - 0.0 - Cloudy 10 - - - -
02/05:00am 9.1 CALM 0 0 1016.0 - 0.0 - Cloudy 10 - - - -
02/04:30am 9.1 CALM 0 0 1015.9 - 0.0 - Cloudy 10 - - - -
02/04:00am 9.3 NNW 3 3 1015.6 - 0.0 - Cloudy 10 - - - -
02/03:30am 9.3 N 4 4 1015.6 - 0.0 - Cloudy 10 - - - -
02/03:00am 9.4 NNE 3 4 1015.6 - 0.0 - Cloudy 10 - - - -
02/02:30am 9.4 CALM 0 0 1015.9 - 0.0 - Cloudy 10 - - - -
02/02:00am 10.0 CALM 0 0 1016.0 - 0.0 - Cloudy 10 - - - -
02/01:30am 10.2 CALM 0 0 1016.2 - 0.0 - Cloudy 10 - - - -
02/01:00am 10.3 CALM 0 0 1016.3 - 0.0 - Cloudy 10 - - - -
02/12:30am 9.2 CALM 0 0 1016.5 - 0.0 - Cloudy 10 - - - -
02/12:00am 9.6 CALM 0 0 1016.8 - 0.0 - Mostly cloudy 10 - - - -
 
Date/Time
WST
Temp
°C
Wind Pressure Rain since
9am
mm
Weather Cloud Vis
km
Sea
Height
m
Swell
Dir  Spd
kts
Gust
kts
hPa Trend Height
m
Period
s
Dir
01/11:30pm 9.0 CALM 0 2 1017.0 - 0.0 - Cloudy 10 - - - -
01/11:00pm 9.5 S 3 5 1017.3 - 0.0 - Partly cloudy 10 - - - -
01/10:30pm 8.5 CALM 0 0 1017.5 - 0.0 - Partly cloudy 10 - - - -
01/10:00pm 8.4 ESE 1 3 1017.5 - 0.0 - - 10 - - - -
01/09:30pm 9.0 ESE 2 3 1017.5 - 0.0 - - 10 - - - -
01/09:00pm 9.5 E 3 4 1017.5 - 0.0 - - 10 - - - -
01/08:30pm 11.3 SSE 4 5 1017.4 - 0.0 - - 10 - - - -
01/08:00pm 11.5 SSE 4 5 1017.4 - 0.0 - - 10 - - - -
01/07:30pm 12.4 S 5 8 1017.3 - 0.0 - - 10 - - - -
01/07:00pm 13.3 S 8 11 1017.3 - 0.0 - Partly cloudy 10 - - - -
01/06:30pm 14.2 S 7 11 1017.1 - 0.0 - Partly cloudy 10 - - - -
01/06:00pm 14.8 S 7 9 1017.0 - 0.0 - Cloudy 10 - - - -
01/05:30pm 15.1 S 9 13 1016.7 - 0.0 - Partly cloudy 10 - - - -
01/05:00pm 16.5 S 9 15 1016.5 - 0.0 - Partly cloudy 10 - - - -
01/04:30pm 16.9 S 10 15 1016.5 - 0.0 - Partly cloudy 10 - - - -
01/04:00pm 15.8 SSW 10 15 1016.3 - 0.0 - Partly cloudy 10 - - - -
01/03:30pm 16.7 S 10 16 1016.4 - 0.0 - Partly cloudy 10 - - - -
01/03:00pm 16.7 SSW 12 16 1016.5 - 0.0 - Mostly cloudy 10 - - - -
01/02:30pm 17.6 SSW 11 16 1016.5 - 0.0 - Partly cloudy 10 - - - -
01/02:00pm 16.4 SSW 12 16 1016.6 - 0.0 - Mostly clear 10 - - - -
01/01:30pm 17.2 SSW 10 14 1016.7 - 0.0 - Partly cloudy 10 - - - -
01/01:00pm 17.4 S 10 17 1016.6 - 0.0 - Mostly clear 10 - - - -
01/12:30pm 17.3 SSW 7 14 1016.8 - 0.0 - Partly cloudy 10 - - - -
01/12:00pm 17.4 S 11 17 1016.7 - 0.0 - Cloudy 10 - - - -
01/11:30am 17.5 SW 10 15 1017.1 - 0.0 - Partly cloudy 10 - - - -
01/11:00am 17.6 SW 9 15 1016.9 - 0.0 - Mostly clear 10 - - - -
01/10:30am 17.3 SSW 9 14 1017.0 - 0.0 - Mostly clear 10 - - - -
01/10:00am 16.4 SSW 10 16 1016.9 - 0.0 - Partly cloudy 10 - - - -
01/09:30am 16.5 SSW 8 12 1017.1 - 0.0 - Mostly cloudy 10 - - - -
01/09:00am 15.3 SSW 8 13 1017.0 - 0.2 - Mostly cloudy 10 - - - -
01/08:30am 15.2 S 9 13 1017.1 - 0.2 - Partly cloudy 10 - - - -
01/08:00am 16.0 SSW 10 15 1016.7 - 0.2 - Partly cloudy 10 - - - -
01/07:30am 15.7 SSW 9 12 1016.5 - 0.2 - Mostly clear 10 - - - -
01/07:00am 15.5 S 9 13 1016.3 - 0.2 - Mostly cloudy 10 - - - -
01/06:30am 14.7 SW 6 9 1016.0 - 0.2 - Partly cloudy 10 - - - -
01/06:00am 13.1 W 4 5 1015.9 - 0.2 - Cloudy 10 - - - -

Other Formats:

Comma delimited format used in spreadsheet applications
http://www.bom.gov.au/fwo/IDW60701/IDW60701.94802.axf

JavaScript Object Notation format (JSON) in row-major order
http://www.bom.gov.au/fwo/IDW60701/IDW60701.94802.json